sensor_id;sensor_type;location;lat;lon;timestamp;P1;durP1;ratioP1;P2;durP2;ratioP2
37049;SDS011;22958;51.232;6.826;2024-02-26T00:01:40;1.67;;;1.00;;
37049;SDS011;22958;51.232;6.826;2024-02-26T00:04:05;2.33;;;1.03;;
37049;SDS011;22958;51.232;6.826;2024-02-26T00:06:31;3.10;;;1.03;;
37049;SDS011;22958;51.232;6.826;2024-02-26T00:08:57;6.07;;;1.00;;
37049;SDS011;22958;51.232;6.826;2024-02-26T00:11:23;2.10;;;0.90;;
37049;SDS011;22958;51.232;6.826;2024-02-26T00:13:48;2.20;;;1.00;;
37049;SDS011;22958;51.232;6.826;2024-02-26T00:16:14;2.20;;;1.10;;
37049;SDS011;22958;51.232;6.826;2024-02-26T00:18:39;2.50;;;0.97;;
37049;SDS011;22958;51.232;6.826;2024-02-26T00:21:05;2.57;;;1.07;;
37049;SDS011;22958;51.232;6.826;2024-02-26T00:23:30;2.43;;;1.17;;
37049;SDS011;22958;51.232;6.826;2024-02-26T00:25:56;1.73;;;0.90;;
37049;SDS011;22958;51.232;6.826;2024-02-26T00:28:21;2.07;;;0.87;;
37049;SDS011;22958;51.232;6.826;2024-02-26T00:30:47;2.60;;;1.10;;
37049;SDS011;22958;51.232;6.826;2024-02-26T00:33:14;4.10;;;1.30;;
37049;SDS011;22958;51.232;6.826;2024-02-26T00:35:41;4.55;;;0.90;;
37049;SDS011;22958;51.232;6.826;2024-02-26T00:38:07;1.93;;;0.90;;
37049;SDS011;22958;51.232;6.826;2024-02-26T00:40:32;4.93;;;0.90;;
37049;SDS011;22958;51.232;6.826;2024-02-26T00:42:58;2.83;;;1.20;;
37049;SDS011;22958;51.232;6.826;2024-02-26T00:45:23;3.43;;;1.00;;
37049;SDS011;22958;51.232;6.826;2024-02-26T00:47:49;2.67;;;1.27;;
37049;SDS011;22958;51.232;6.826;2024-02-26T00:50:14;3.87;;;1.10;;
37049;SDS011;22958;51.232;6.826;2024-02-26T00:52:40;1.90;;;1.10;;
37049;SDS011;22958;51.232;6.826;2024-02-26T00:55:06;2.63;;;0.97;;
37049;SDS011;22958;51.232;6.826;2024-02-26T00:57:32;3.53;;;1.60;;
37049;SDS011;22958;51.232;6.826;2024-02-26T00:59:57;2.90;;;1.40;;
37049;SDS011;22958;51.232;6.826;2024-02-26T01:02:24;4.35;;;1.48;;
37049;SDS011;22958;51.232;6.826;2024-02-26T01:04:49;6.33;;;1.40;;
37049;SDS011;22958;51.232;6.826;2024-02-26T01:07:15;6.23;;;1.40;;
37049;SDS011;22958;51.232;6.826;2024-02-26T01:09:41;1.50;;;0.93;;
37049;SDS011;22958;51.232;6.826;2024-02-26T01:12:07;3.38;;;1.20;;
37049;SDS011;22958;51.232;6.826;2024-02-26T01:14:33;3.57;;;1.20;;
37049;SDS011;22958;51.232;6.826;2024-02-26T01:16:58;3.37;;;0.87;;
37049;SDS011;22958;51.232;6.826;2024-02-26T01:19:24;2.10;;;1.00;;
37049;SDS011;22958;51.232;6.826;2024-02-26T01:21:49;2.60;;;1.20;;
37049;SDS011;22958;51.232;6.826;2024-02-26T01:24:15;1.53;;;1.03;;
37049;SDS011;22958;51.232;6.826;2024-02-26T01:26:40;1.77;;;0.90;;
37049;SDS011;22958;51.232;6.826;2024-02-26T01:29:06;2.90;;;0.93;;
37049;SDS011;22958;51.232;6.826;2024-02-26T01:31:32;2.27;;;0.80;;
37049;SDS011;22958;51.232;6.826;2024-02-26T01:33:57;3.03;;;0.90;;
37049;SDS011;22958;51.232;6.826;2024-02-26T01:36:23;1.70;;;0.80;;
37049;SDS011;22958;51.232;6.826;2024-02-26T01:38:48;2.30;;;0.90;;
37049;SDS011;22958;51.232;6.826;2024-02-26T01:41:14;3.37;;;1.13;;
37049;SDS011;22958;51.232;6.826;2024-02-26T01:43:40;2.13;;;1.00;;
37049;SDS011;22958;51.232;6.826;2024-02-26T01:46:05;2.97;;;0.90;;
37049;SDS011;22958;51.232;6.826;2024-02-26T01:48:35;3.78;;;1.17;;
37049;SDS011;22958;51.232;6.826;2024-02-26T01:51:01;3.13;;;1.05;;
37049;SDS011;22958;51.232;6.826;2024-02-26T01:53:26;5.27;;;1.27;;
37049;SDS011;22958;51.232;6.826;2024-02-26T01:55:52;2.83;;;1.13;;
37049;SDS011;22958;51.232;6.826;2024-02-26T01:58:17;5.77;;;1.23;;
37049;SDS011;22958;51.232;6.826;2024-02-26T02:00:43;2.73;;;1.20;;
37049;SDS011;22958;51.232;6.826;2024-02-26T02:03:09;3.87;;;1.07;;
37049;SDS011;22958;51.232;6.826;2024-02-26T02:05:34;2.13;;;0.90;;
37049;SDS011;22958;51.232;6.826;2024-02-26T02:08:06;2.55;;;1.02;;
37049;SDS011;22958;51.232;6.826;2024-02-26T02:10:32;3.50;;;0.90;;
37049;SDS011;22958;51.232;6.826;2024-02-26T02:12:59;3.58;;;1.02;;
37049;SDS011;22958;51.232;6.826;2024-02-26T02:15:24;1.73;;;0.83;;
37049;SDS011;22958;51.232;6.826;2024-02-26T02:17:50;1.53;;;0.90;;
37049;SDS011;22958;51.232;6.826;2024-02-26T02:20:16;2.07;;;0.93;;
37049;SDS011;22958;51.232;6.826;2024-02-26T02:22:43;3.15;;;0.80;;
37049;SDS011;22958;51.232;6.826;2024-02-26T02:25:11;3.40;;;1.13;;
37049;SDS011;22958;51.232;6.826;2024-02-26T02:27:37;4.00;;;1.02;;
37049;SDS011;22958;51.232;6.826;2024-02-26T02:30:04;1.85;;;0.93;;
37049;SDS011;22958;51.232;6.826;2024-02-26T02:32:31;3.28;;;1.05;;
37049;SDS011;22958;51.232;6.826;2024-02-26T02:34:57;3.00;;;1.10;;
37049;SDS011;22958;51.232;6.826;2024-02-26T02:37:23;4.07;;;1.30;;
37049;SDS011;22958;51.232;6.826;2024-02-26T02:39:49;1.53;;;0.90;;
37049;SDS011;22958;51.232;6.826;2024-02-26T02:42:14;6.47;;;1.30;;
37049;SDS011;22958;51.232;6.826;2024-02-26T02:44:40;4.00;;;0.90;;
37049;SDS011;22958;51.232;6.826;2024-02-26T02:47:05;2.23;;;1.13;;
37049;SDS011;22958;51.232;6.826;2024-02-26T02:49:31;5.57;;;1.17;;
37049;SDS011;22958;51.232;6.826;2024-02-26T02:51:56;3.87;;;1.20;;
37049;SDS011;22958;51.232;6.826;2024-02-26T02:54:22;2.80;;;1.10;;
37049;SDS011;22958;51.232;6.826;2024-02-26T02:56:48;2.90;;;1.07;;
37049;SDS011;22958;51.232;6.826;2024-02-26T02:59:13;3.57;;;1.00;;
37049;SDS011;22958;51.232;6.826;2024-02-26T03:01:39;3.00;;;1.40;;
37049;SDS011;22958;51.232;6.826;2024-02-26T03:04:05;2.37;;;0.87;;
37049;SDS011;22958;51.232;6.826;2024-02-26T03:06:30;2.27;;;1.03;;
37049;SDS011;22958;51.232;6.826;2024-02-26T03:08:56;5.47;;;1.60;;
37049;SDS011;22958;51.232;6.826;2024-02-26T03:11:21;5.77;;;1.40;;
37049;SDS011;22958;51.232;6.826;2024-02-26T03:13:47;2.40;;;0.93;;
37049;SDS011;22958;51.232;6.826;2024-02-26T03:16:12;2.33;;;1.17;;
37049;SDS011;22958;51.232;6.826;2024-02-26T03:18:38;2.57;;;1.10;;
37049;SDS011;22958;51.232;6.826;2024-02-26T03:21:05;1.83;;;0.95;;
37049;SDS011;22958;51.232;6.826;2024-02-26T03:23:30;2.27;;;0.93;;
37049;SDS011;22958;51.232;6.826;2024-02-26T03:25:57;2.30;;;1.15;;
37049;SDS011;22958;51.232;6.826;2024-02-26T03:28:23;2.92;;;1.20;;
37049;SDS011;22958;51.232;6.826;2024-02-26T03:30:48;5.97;;;1.50;;
37049;SDS011;22958;51.232;6.826;2024-02-26T03:33:14;4.50;;;1.03;;
37049;SDS011;22958;51.232;6.826;2024-02-26T03:35:40;3.20;;;1.13;;
37049;SDS011;22958;51.232;6.826;2024-02-26T03:38:06;3.05;;;1.30;;
37049;SDS011;22958;51.232;6.826;2024-02-26T03:40:32;3.37;;;1.13;;
37049;SDS011;22958;51.232;6.826;2024-02-26T03:42:57;1.83;;;1.10;;
37049;SDS011;22958;51.232;6.826;2024-02-26T03:45:23;2.90;;;0.90;;
37049;SDS011;22958;51.232;6.826;2024-02-26T03:47:49;2.57;;;1.13;;
37049;SDS011;22958;51.232;6.826;2024-02-26T03:50:14;1.97;;;0.90;;
37049;SDS011;22958;51.232;6.826;2024-02-26T03:52:40;2.87;;;1.10;;
37049;SDS011;22958;51.232;6.826;2024-02-26T03:55:05;5.97;;;1.33;;
37049;SDS011;22958;51.232;6.826;2024-02-26T03:57:31;4.70;;;1.30;;
37049;SDS011;22958;51.232;6.826;2024-02-26T03:59:56;2.03;;;1.00;;
37049;SDS011;22958;51.232;6.826;2024-02-26T04:02:22;1.87;;;0.93;;
37049;SDS011;22958;51.232;6.826;2024-02-26T04:04:48;2.90;;;1.00;;
37049;SDS011;22958;51.232;6.826;2024-02-26T04:07:14;2.58;;;1.23;;
37049;SDS011;22958;51.232;6.826;2024-02-26T04:09:39;2.83;;;1.23;;
37049;SDS011;22958;51.232;6.826;2024-02-26T04:12:05;6.07;;;1.33;;
37049;SDS011;22958;51.232;6.826;2024-02-26T04:14:31;3.70;;;1.73;;
37049;SDS011;22958;51.232;6.826;2024-02-26T04:16:56;3.40;;;1.03;;
37049;SDS011;22958;51.232;6.826;2024-02-26T04:19:22;5.20;;;1.50;;
37049;SDS011;22958;51.232;6.826;2024-02-26T04:21:47;2.17;;;1.20;;
37049;SDS011;22958;51.232;6.826;2024-02-26T04:24:13;2.63;;;1.10;;
37049;SDS011;22958;51.232;6.826;2024-02-26T04:26:38;3.40;;;1.57;;
37049;SDS011;22958;51.232;6.826;2024-02-26T04:29:04;3.97;;;1.37;;
37049;SDS011;22958;51.232;6.826;2024-02-26T04:31:29;3.53;;;1.50;;
37049;SDS011;22958;51.232;6.826;2024-02-26T04:33:57;7.25;;;1.27;;
37049;SDS011;22958;51.232;6.826;2024-02-26T04:36:23;2.70;;;1.60;;
37049;SDS011;22958;51.232;6.826;2024-02-26T04:38:50;3.65;;;1.50;;
37049;SDS011;22958;51.232;6.826;2024-02-26T04:41:16;2.20;;;1.23;;
37049;SDS011;22958;51.232;6.826;2024-02-26T04:43:42;2.53;;;1.40;;
37049;SDS011;22958;51.232;6.826;2024-02-26T04:46:08;2.97;;;1.63;;
37049;SDS011;22958;51.232;6.826;2024-02-26T04:48:34;7.00;;;1.47;;
37049;SDS011;22958;51.232;6.826;2024-02-26T04:51:00;2.88;;;1.70;;
37049;SDS011;22958;51.232;6.826;2024-02-26T04:53:26;4.40;;;1.50;;
37049;SDS011;22958;51.232;6.826;2024-02-26T04:55:51;2.97;;;1.50;;
37049;SDS011;22958;51.232;6.826;2024-02-26T04:58:17;6.63;;;1.90;;
37049;SDS011;22958;51.232;6.826;2024-02-26T05:00:43;4.80;;;1.97;;
37049;SDS011;22958;51.232;6.826;2024-02-26T05:03:08;4.97;;;1.88;;
37049;SDS011;22958;51.232;6.826;2024-02-26T05:05:38;4.03;;;1.92;;
37049;SDS011;22958;51.232;6.826;2024-02-26T05:08:04;6.00;;;1.92;;
37049;SDS011;22958;51.232;6.826;2024-02-26T05:10:30;3.10;;;1.53;;
37049;SDS011;22958;51.232;6.826;2024-02-26T05:12:55;4.00;;;2.00;;
37049;SDS011;22958;51.232;6.826;2024-02-26T05:15:21;7.20;;;2.13;;
37049;SDS011;22958;51.232;6.826;2024-02-26T05:17:46;5.47;;;2.10;;
37049;SDS011;22958;51.232;6.826;2024-02-26T05:20:12;7.23;;;1.80;;
37049;SDS011;22958;51.232;6.826;2024-02-26T05:22:38;5.63;;;1.97;;
37049;SDS011;22958;51.232;6.826;2024-02-26T05:25:03;3.77;;;1.80;;
37049;SDS011;22958;51.232;6.826;2024-02-26T05:27:29;4.10;;;1.70;;
37049;SDS011;22958;51.232;6.826;2024-02-26T05:29:55;3.43;;;2.03;;
37049;SDS011;22958;51.232;6.826;2024-02-26T05:32:21;4.40;;;2.10;;
37049;SDS011;22958;51.232;6.826;2024-02-26T05:34:47;5.67;;;2.10;;
37049;SDS011;22958;51.232;6.826;2024-02-26T05:37:12;9.17;;;2.40;;
37049;SDS011;22958;51.232;6.826;2024-02-26T05:39:38;4.20;;;1.97;;
37049;SDS011;22958;51.232;6.826;2024-02-26T05:42:03;5.10;;;2.67;;
37049;SDS011;22958;51.232;6.826;2024-02-26T05:44:29;3.93;;;2.30;;
37049;SDS011;22958;51.232;6.826;2024-02-26T05:46:55;6.70;;;2.30;;
37049;SDS011;22958;51.232;6.826;2024-02-26T05:49:21;6.90;;;2.30;;
37049;SDS011;22958;51.232;6.826;2024-02-26T05:51:47;7.25;;;2.60;;
37049;SDS011;22958;51.232;6.826;2024-02-26T05:54:13;3.53;;;2.17;;
37049;SDS011;22958;51.232;6.826;2024-02-26T05:56:39;9.20;;;2.80;;
37049;SDS011;22958;51.232;6.826;2024-02-26T05:59:04;6.17;;;2.60;;
37049;SDS011;22958;51.232;6.826;2024-02-26T06:01:30;11.07;;;2.80;;
37049;SDS011;22958;51.232;6.826;2024-02-26T06:03:56;7.03;;;2.87;;
37049;SDS011;22958;51.232;6.826;2024-02-26T06:06:22;5.80;;;2.97;;
37049;SDS011;22958;51.232;6.826;2024-02-26T06:08:48;7.70;;;3.10;;
37049;SDS011;22958;51.232;6.826;2024-02-26T06:11:14;6.87;;;2.53;;
37049;SDS011;22958;51.232;6.826;2024-02-26T06:13:40;6.40;;;3.00;;
37049;SDS011;22958;51.232;6.826;2024-02-26T06:16:05;8.37;;;3.97;;
37049;SDS011;22958;51.232;6.826;2024-02-26T06:18:32;9.15;;;3.10;;
37049;SDS011;22958;51.232;6.826;2024-02-26T06:20:58;7.57;;;3.30;;
37049;SDS011;22958;51.232;6.826;2024-02-26T06:23:24;7.72;;;3.40;;
37049;SDS011;22958;51.232;6.826;2024-02-26T06:25:50;8.43;;;3.15;;
37049;SDS011;22958;51.232;6.826;2024-02-26T06:28:17;7.22;;;3.15;;
37049;SDS011;22958;51.232;6.826;2024-02-26T06:30:42;5.70;;;2.87;;
37049;SDS011;22958;51.232;6.826;2024-02-26T06:33:08;9.43;;;3.13;;
37049;SDS011;22958;51.232;6.826;2024-02-26T06:35:33;6.23;;;2.87;;
37049;SDS011;22958;51.232;6.826;2024-02-26T06:37:59;5.07;;;2.87;;
37049;SDS011;22958;51.232;6.826;2024-02-26T06:40:25;8.07;;;3.00;;
37049;SDS011;22958;51.232;6.826;2024-02-26T06:42:50;5.73;;;3.33;;
37049;SDS011;22958;51.232;6.826;2024-02-26T06:45:16;3.23;;;2.37;;
37049;SDS011;22958;51.232;6.826;2024-02-26T06:47:43;4.68;;;3.05;;
37049;SDS011;22958;51.232;6.826;2024-02-26T06:50:09;5.77;;;3.47;;
37049;SDS011;22958;51.232;6.826;2024-02-26T06:52:36;8.30;;;3.70;;
37049;SDS011;22958;51.232;6.826;2024-02-26T06:55:01;7.00;;;3.40;;
37049;SDS011;22958;51.232;6.826;2024-02-26T06:57:27;7.70;;;4.00;;
37049;SDS011;22958;51.232;6.826;2024-02-26T06:59:54;5.17;;;3.40;;
37049;SDS011;22958;51.232;6.826;2024-02-26T07:02:19;10.07;;;4.68;;
37049;SDS011;22958;51.232;6.826;2024-02-26T07:04:45;6.40;;;3.83;;
37049;SDS011;22958;51.232;6.826;2024-02-26T07:07:10;6.00;;;3.20;;
37049;SDS011;22958;51.232;6.826;2024-02-26T07:09:36;6.43;;;3.40;;
37049;SDS011;22958;51.232;6.826;2024-02-26T07:12:01;9.40;;;3.70;;
37049;SDS011;22958;51.232;6.826;2024-02-26T07:14:27;7.87;;;3.50;;
37049;SDS011;22958;51.232;6.826;2024-02-26T07:16:53;10.37;;;3.63;;
37049;SDS011;22958;51.232;6.826;2024-02-26T07:19:18;10.07;;;3.97;;
37049;SDS011;22958;51.232;6.826;2024-02-26T07:21:44;5.77;;;3.13;;
37049;SDS011;22958;51.232;6.826;2024-02-26T07:24:10;8.80;;;3.13;;
37049;SDS011;22958;51.232;6.826;2024-02-26T07:26:35;6.03;;;3.10;;
37049;SDS011;22958;51.232;6.826;2024-02-26T07:29:01;5.90;;;3.17;;
37049;SDS011;22958;51.232;6.826;2024-02-26T07:31:26;6.00;;;3.03;;
37049;SDS011;22958;51.232;6.826;2024-02-26T07:33:52;6.13;;;3.30;;
37049;SDS011;22958;51.232;6.826;2024-02-26T07:36:17;10.20;;;2.97;;
37049;SDS011;22958;51.232;6.826;2024-02-26T07:38:43;12.77;;;3.63;;
37049;SDS011;22958;51.232;6.826;2024-02-26T07:41:09;7.55;;;3.20;;
37049;SDS011;22958;51.232;6.826;2024-02-26T07:43:36;6.57;;;3.33;;
37049;SDS011;22958;51.232;6.826;2024-02-26T07:46:01;6.13;;;3.13;;
37049;SDS011;22958;51.232;6.826;2024-02-26T07:48:27;6.23;;;3.20;;
37049;SDS011;22958;51.232;6.826;2024-02-26T07:50:53;6.40;;;3.00;;
37049;SDS011;22958;51.232;6.826;2024-02-26T07:53:18;10.30;;;3.33;;
37049;SDS011;22958;51.232;6.826;2024-02-26T07:55:44;6.70;;;3.00;;
37049;SDS011;22958;51.232;6.826;2024-02-26T07:58:09;10.43;;;2.60;;
37049;SDS011;22958;51.232;6.826;2024-02-26T08:00:35;7.97;;;3.13;;
37049;SDS011;22958;51.232;6.826;2024-02-26T08:03:00;6.20;;;2.83;;
37049;SDS011;22958;51.232;6.826;2024-02-26T08:05:26;4.50;;;3.07;;
37049;SDS011;22958;51.232;6.826;2024-02-26T08:07:51;5.80;;;3.20;;
37049;SDS011;22958;51.232;6.826;2024-02-26T08:10:17;4.60;;;3.03;;
37049;SDS011;22958;51.232;6.826;2024-02-26T08:12:43;6.13;;;3.10;;
37049;SDS011;22958;51.232;6.826;2024-02-26T08:15:10;7.35;;;2.70;;
37049;SDS011;22958;51.232;6.826;2024-02-26T08:17:36;5.22;;;3.08;;
37049;SDS011;22958;51.232;6.826;2024-02-26T08:20:02;5.67;;;2.40;;
37049;SDS011;22958;51.232;6.826;2024-02-26T08:22:27;3.80;;;2.30;;
37049;SDS011;22958;51.232;6.826;2024-02-26T08:24:53;5.77;;;2.90;;
37049;SDS011;22958;51.232;6.826;2024-02-26T08:27:18;5.43;;;2.70;;
37049;SDS011;22958;51.232;6.826;2024-02-26T08:29:44;6.20;;;2.57;;
37049;SDS011;22958;51.232;6.826;2024-02-26T08:32:09;5.57;;;2.80;;
37049;SDS011;22958;51.232;6.826;2024-02-26T08:34:35;5.10;;;2.60;;
37049;SDS011;22958;51.232;6.826;2024-02-26T08:37:00;4.73;;;2.47;;
37049;SDS011;22958;51.232;6.826;2024-02-26T08:39:26;8.83;;;2.57;;
37049;SDS011;22958;51.232;6.826;2024-02-26T08:41:51;4.80;;;2.63;;
37049;SDS011;22958;51.232;6.826;2024-02-26T08:44:17;5.63;;;2.30;;
37049;SDS011;22958;51.232;6.826;2024-02-26T08:46:43;4.87;;;2.43;;
37049;SDS011;22958;51.232;6.826;2024-02-26T08:49:10;7.75;;;2.88;;
37049;SDS011;22958;51.232;6.826;2024-02-26T08:51:40;10.23;;;2.63;;
37049;SDS011;22958;51.232;6.826;2024-02-26T08:54:09;6.28;;;2.85;;
37049;SDS011;22958;51.232;6.826;2024-02-26T08:56:35;4.90;;;2.40;;
37049;SDS011;22958;51.232;6.826;2024-02-26T08:59:00;5.53;;;2.80;;
37049;SDS011;22958;51.232;6.826;2024-02-26T09:01:29;6.88;;;2.30;;
37049;SDS011;22958;51.232;6.826;2024-02-26T09:03:56;7.13;;;2.58;;
37049;SDS011;22958;51.232;6.826;2024-02-26T09:06:21;7.27;;;3.17;;
37049;SDS011;22958;51.232;6.826;2024-02-26T09:08:47;4.93;;;2.23;;
37049;SDS011;22958;51.232;6.826;2024-02-26T09:11:13;5.33;;;2.53;;
37049;SDS011;22958;51.232;6.826;2024-02-26T09:13:39;6.35;;;2.45;;
37049;SDS011;22958;51.232;6.826;2024-02-26T09:16:05;4.37;;;2.20;;
37049;SDS011;22958;51.232;6.826;2024-02-26T09:18:31;5.28;;;2.58;;
37049;SDS011;22958;51.232;6.826;2024-02-26T09:20:56;4.97;;;2.53;;
37049;SDS011;22958;51.232;6.826;2024-02-26T09:23:22;5.93;;;2.27;;
37049;SDS011;22958;51.232;6.826;2024-02-26T09:25:47;8.73;;;2.70;;
37049;SDS011;22958;51.232;6.826;2024-02-26T09:28:13;3.30;;;2.43;;
37049;SDS011;22958;51.232;6.826;2024-02-26T09:30:41;4.95;;;2.33;;
37049;SDS011;22958;51.232;6.826;2024-02-26T09:33:07;12.00;;;3.07;;
37049;SDS011;22958;51.232;6.826;2024-02-26T09:35:33;6.93;;;2.63;;
37049;SDS011;22958;51.232;6.826;2024-02-26T09:37:59;6.23;;;2.97;;
37049;SDS011;22958;51.232;6.826;2024-02-26T09:40:24;4.97;;;3.03;;
37049;SDS011;22958;51.232;6.826;2024-02-26T09:42:50;6.57;;;2.90;;
37049;SDS011;22958;51.232;6.826;2024-02-26T09:45:24;4.57;;;2.47;;
37049;SDS011;22958;51.232;6.826;2024-02-26T09:50:19;5.72;;;2.53;;
37049;SDS011;22958;51.232;6.826;2024-02-26T09:52:47;6.22;;;2.88;;
37049;SDS011;22958;51.232;6.826;2024-02-26T09:55:14;4.75;;;2.47;;
37049;SDS011;22958;51.232;6.826;2024-02-26T09:57:42;5.40;;;3.30;;
37049;SDS011;22958;51.232;6.826;2024-02-26T10:00:11;7.47;;;2.53;;
37049;SDS011;22958;51.232;6.826;2024-02-26T10:02:43;7.13;;;3.30;;
37049;SDS011;22958;51.232;6.826;2024-02-26T10:05:10;5.68;;;2.20;;
37049;SDS011;22958;51.232;6.826;2024-02-26T10:07:39;6.72;;;2.45;;
37049;SDS011;22958;51.232;6.826;2024-02-26T10:10:07;5.57;;;3.03;;
37049;SDS011;22958;51.232;6.826;2024-02-26T10:12:33;8.35;;;2.38;;
37049;SDS011;22958;51.232;6.826;2024-02-26T10:14:59;9.73;;;3.13;;
37049;SDS011;22958;51.232;6.826;2024-02-26T10:17:24;7.40;;;3.63;;
37049;SDS011;22958;51.232;6.826;2024-02-26T10:19:50;6.87;;;3.73;;
37049;SDS011;22958;51.232;6.826;2024-02-26T10:22:16;8.10;;;3.80;;
37049;SDS011;22958;51.232;6.826;2024-02-26T10:24:42;9.73;;;3.63;;
37049;SDS011;22958;51.232;6.826;2024-02-26T10:27:07;11.23;;;3.83;;
37049;SDS011;22958;51.232;6.826;2024-02-26T10:29:34;4.85;;;3.13;;
37049;SDS011;22958;51.232;6.826;2024-02-26T10:31:59;9.87;;;3.60;;
37049;SDS011;22958;51.232;6.826;2024-02-26T10:34:26;7.38;;;3.00;;
37049;SDS011;22958;51.232;6.826;2024-02-26T10:36:53;9.15;;;3.72;;
37049;SDS011;22958;51.232;6.826;2024-02-26T10:39:18;9.98;;;3.97;;
37049;SDS011;22958;51.232;6.826;2024-02-26T10:41:44;7.03;;;3.60;;
37049;SDS011;22958;51.232;6.826;2024-02-26T10:44:12;6.65;;;3.42;;
37049;SDS011;22958;51.232;6.826;2024-02-26T10:46:41;8.17;;;3.27;;
37049;SDS011;22958;51.232;6.826;2024-02-26T10:49:12;8.38;;;3.33;;
37049;SDS011;22958;51.232;6.826;2024-02-26T10:51:39;10.23;;;4.00;;
37049;SDS011;22958;51.232;6.826;2024-02-26T10:54:08;15.52;;;4.05;;
37049;SDS011;22958;51.232;6.826;2024-02-26T10:56:37;8.60;;;3.30;;
37049;SDS011;22958;51.232;6.826;2024-02-26T10:59:06;7.25;;;3.78;;
37049;SDS011;22958;51.232;6.826;2024-02-26T11:01:34;9.98;;;4.18;;
37049;SDS011;22958;51.232;6.826;2024-02-26T11:04:02;7.07;;;4.13;;
37049;SDS011;22958;51.232;6.826;2024-02-26T11:06:28;12.48;;;4.72;;
37049;SDS011;22958;51.232;6.826;2024-02-26T11:08:54;9.40;;;3.93;;
37049;SDS011;22958;51.232;6.826;2024-02-26T11:11:20;8.30;;;4.13;;
37049;SDS011;22958;51.232;6.826;2024-02-26T11:13:47;11.52;;;3.85;;
37049;SDS011;22958;51.232;6.826;2024-02-26T11:16:16;10.82;;;4.10;;
37049;SDS011;22958;51.232;6.826;2024-02-26T11:18:44;8.13;;;4.20;;
37049;SDS011;22958;51.232;6.826;2024-02-26T11:21:17;7.95;;;4.45;;
37049;SDS011;22958;51.232;6.826;2024-02-26T11:23:45;8.73;;;3.60;;
37049;SDS011;22958;51.232;6.826;2024-02-26T11:26:11;7.97;;;3.85;;
37049;SDS011;22958;51.232;6.826;2024-02-26T11:28:38;6.72;;;3.97;;
37049;SDS011;22958;51.232;6.826;2024-02-26T11:31:05;7.05;;;3.90;;
37049;SDS011;22958;51.232;6.826;2024-02-26T11:33:32;7.18;;;3.80;;
37049;SDS011;22958;51.232;6.826;2024-02-26T11:36:00;9.38;;;4.47;;
37049;SDS011;22958;51.232;6.826;2024-02-26T11:38:27;7.65;;;4.32;;
37049;SDS011;22958;51.232;6.826;2024-02-26T11:40:53;8.13;;;4.27;;
37049;SDS011;22958;51.232;6.826;2024-02-26T11:43:23;7.20;;;4.03;;
37049;SDS011;22958;51.232;6.826;2024-02-26T11:46:24;9.10;;;4.97;;
37049;SDS011;22958;51.232;6.826;2024-02-26T11:48:56;6.93;;;4.15;;
37049;SDS011;22958;51.232;6.826;2024-02-26T11:51:26;6.93;;;4.57;;
37049;SDS011;22958;51.232;6.826;2024-02-26T11:53:52;12.82;;;4.53;;
37049;SDS011;22958;51.232;6.826;2024-02-26T11:56:20;13.30;;;5.45;;
37049;SDS011;22958;51.232;6.826;2024-02-26T12:04:19;9.73;;;5.53;;
37049;SDS011;22958;51.232;6.826;2024-02-26T12:06:51;10.18;;;5.20;;
37049;SDS011;22958;51.232;6.826;2024-02-26T12:11:57;10.45;;;5.55;;
37049;SDS011;22958;51.232;6.826;2024-02-26T12:14:25;10.33;;;6.13;;
37049;SDS011;22958;51.232;6.826;2024-02-26T12:16:51;15.15;;;6.00;;
37049;SDS011;22958;51.232;6.826;2024-02-26T12:19:17;11.23;;;6.72;;
37049;SDS011;22958;51.232;6.826;2024-02-26T12:21:43;14.23;;;7.10;;
37049;SDS011;22958;51.232;6.826;2024-02-26T12:24:13;12.33;;;6.57;;
37049;SDS011;22958;51.232;6.826;2024-02-26T12:26:40;12.23;;;6.57;;
37049;SDS011;22958;51.232;6.826;2024-02-26T12:29:06;13.47;;;6.07;;
37049;SDS011;22958;51.232;6.826;2024-02-26T12:31:32;14.63;;;7.43;;
37049;SDS011;22958;51.232;6.826;2024-02-26T12:34:01;14.70;;;7.80;;
37049;SDS011;22958;51.232;6.826;2024-02-26T12:36:27;15.23;;;7.90;;
37049;SDS011;22958;51.232;6.826;2024-02-26T12:38:53;14.13;;;8.00;;
37049;SDS011;22958;51.232;6.826;2024-02-26T12:41:18;19.73;;;8.20;;
37049;SDS011;22958;51.232;6.826;2024-02-26T12:43:45;15.70;;;8.00;;
37049;SDS011;22958;51.232;6.826;2024-02-26T12:46:11;14.80;;;8.60;;
37049;SDS011;22958;51.232;6.826;2024-02-26T12:48:38;14.95;;;8.13;;
37049;SDS011;22958;51.232;6.826;2024-02-26T12:51:04;16.23;;;8.73;;
37049;SDS011;22958;51.232;6.826;2024-02-26T12:53:30;18.13;;;8.40;;
37049;SDS011;22958;51.232;6.826;2024-02-26T12:55:57;17.30;;;9.93;;
37049;SDS011;22958;51.232;6.826;2024-02-26T12:58:23;17.75;;;8.82;;
37049;SDS011;22958;51.232;6.826;2024-02-26T13:00:53;14.93;;;8.60;;
37049;SDS011;22958;51.232;6.826;2024-02-26T13:03:20;16.15;;;8.40;;
37049;SDS011;22958;51.232;6.826;2024-02-26T13:05:47;16.35;;;9.13;;
37049;SDS011;22958;51.232;6.826;2024-02-26T13:08:20;20.80;;;10.10;;
37049;SDS011;22958;51.232;6.826;2024-02-26T13:10:46;18.05;;;8.82;;
37049;SDS011;22958;51.232;6.826;2024-02-26T13:13:15;16.65;;;9.35;;
37049;SDS011;22958;51.232;6.826;2024-02-26T13:15:44;18.50;;;9.85;;
37049;SDS011;22958;51.232;6.826;2024-02-26T13:18:11;20.00;;;9.38;;
37049;SDS011;22958;51.232;6.826;2024-02-26T13:20:38;17.38;;;8.82;;
37049;SDS011;22958;51.232;6.826;2024-02-26T13:23:08;16.13;;;9.60;;
37049;SDS011;22958;51.232;6.826;2024-02-26T13:25:37;19.27;;;9.98;;
37049;SDS011;22958;51.232;6.826;2024-02-26T13:30:34;18.45;;;9.73;;
37049;SDS011;22958;51.232;6.826;2024-02-26T13:33:12;14.70;;;8.93;;
37049;SDS011;22958;51.232;6.826;2024-02-26T13:35:38;18.27;;;9.55;;
37049;SDS011;22958;51.232;6.826;2024-02-26T13:38:05;17.75;;;9.45;;
37049;SDS011;22958;51.232;6.826;2024-02-26T13:40:34;19.10;;;10.15;;
37049;SDS011;22958;51.232;6.826;2024-02-26T13:43:00;22.55;;;10.18;;
37049;SDS011;22958;51.232;6.826;2024-02-26T13:45:26;19.37;;;10.13;;
37049;SDS011;22958;51.232;6.826;2024-02-26T13:47:52;19.77;;;10.43;;
37049;SDS011;22958;51.232;6.826;2024-02-26T13:50:18;18.57;;;10.00;;
37049;SDS011;22958;51.232;6.826;2024-02-26T13:52:46;20.63;;;9.95;;
37049;SDS011;22958;51.232;6.826;2024-02-26T13:55:12;22.27;;;10.48;;
37049;SDS011;22958;51.232;6.826;2024-02-26T14:00:05;16.27;;;9.80;;
37049;SDS011;22958;51.232;6.826;2024-02-26T14:02:32;16.40;;;9.30;;
37049;SDS011;22958;51.232;6.826;2024-02-26T14:05:01;17.13;;;9.73;;
37049;SDS011;22958;51.232;6.826;2024-02-26T14:07:28;20.45;;;9.10;;
37049;SDS011;22958;51.232;6.826;2024-02-26T14:09:55;16.42;;;9.20;;
37049;SDS011;22958;51.232;6.826;2024-02-26T14:12:20;20.20;;;9.77;;
37049;SDS011;22958;51.232;6.826;2024-02-26T14:14:46;18.43;;;9.63;;
37049;SDS011;22958;51.232;6.826;2024-02-26T14:17:13;15.70;;;9.27;;
37049;SDS011;22958;51.232;6.826;2024-02-26T14:19:39;20.85;;;10.43;;
37049;SDS011;22958;51.232;6.826;2024-02-26T14:22:10;15.68;;;8.32;;
37049;SDS011;22958;51.232;6.826;2024-02-26T14:24:36;18.85;;;8.48;;
37049;SDS011;22958;51.232;6.826;2024-02-26T14:27:02;12.30;;;7.30;;
37049;SDS011;22958;51.232;6.826;2024-02-26T14:29:29;15.95;;;8.70;;
37049;SDS011;22958;51.232;6.826;2024-02-26T14:31:54;16.53;;;8.43;;
37049;SDS011;22958;51.232;6.826;2024-02-26T14:36:46;14.55;;;8.38;;
37049;SDS011;22958;51.232;6.826;2024-02-26T14:39:12;12.93;;;7.00;;
37049;SDS011;22958;51.232;6.826;2024-02-26T14:41:38;18.03;;;7.63;;
37049;SDS011;22958;51.232;6.826;2024-02-26T14:44:04;13.77;;;7.57;;
37049;SDS011;22958;51.232;6.826;2024-02-26T14:46:30;16.97;;;7.37;;
37049;SDS011;22958;51.232;6.826;2024-02-26T14:48:55;12.10;;;6.87;;
37049;SDS011;22958;51.232;6.826;2024-02-26T14:51:21;13.07;;;7.20;;
37049;SDS011;22958;51.232;6.826;2024-02-26T14:53:47;12.55;;;6.78;;
37049;SDS011;22958;51.232;6.826;2024-02-26T14:56:13;11.50;;;6.63;;